Terminal Aerodrome Forecast
Issued by NWS

Home | Current Version | Previous Version | Text Only | Print | Product List | Glossary On
Versions: 1 2 3 4 5 6 7 8 9 10 11 12 13 14 15 16
637
FTAK31 PAJN 011739
TAFAKT
TAF
PAKT 011739Z 0118/0218 14013KT 3SM RA BR SCT008 OVC015
      WS020/16040KT
     FM012100 14018G30KT 3SM RA BR OVC012 WS020/17045KT
     FM020600 14015G22KT 4SM -RA BR OVC015 WS020/17035KT
     FM021200 14011KT P6SM -RA BKN015 OVC045
      AMD LTD TO CLD VIS AND WIND 0206/0212=

USA.gov is the U.S. government's official web portal to all federal, state and local government web resources and services.